KMTO/MTO METAR and TAF weather

Enter ICAO airport designator
Station Type Date Time Source
KMTO METAR 2019/02/22 22:53 UTC NOAA

KMTO 222253Z AUTO 07006KT 10SM OVC070 04/M01 A3027 RMK AO2 SLP257 T00441006


Station Type Date Time Source
KMTO Decoded METAR 2019/02/22 22:53 UTC NOAA

MATTOON/CHARLESTON COLES CO, IL, United States (KMTO) 39-28N 88-16W 214M
Feb 22, 2019 - 05:53 PM EST / 2019.02.22 2253 UTC
Wind: from the ENE (070 degrees) at 7 MPH (6 KT):0
Visibility: 10 mile(s):0
Sky conditions: overcast
Temperature: 39.9 F (4.4 C)
Dew Point: 30.9 F (-0.6 C)
Relative Humidity: 69%
Pressure (altimeter): 30.27 in. Hg (1025 hPa)
ob: KMTO 222253Z AUTO 07006KT 10SM OVC070 04/M01 A3027 RMK AO2 SLP257 T00441006
cycle: 23

Station Type Date Time Source
KMTO TAF UTC NOAA

Error!


Example: see airport list